createdAt,value
2022-11-24T00:01:31.535Z,20.40
2022-11-24T00:04:02.284Z,14.40
2022-11-24T00:06:32.593Z,12.40
2022-11-24T00:09:04.857Z,11.03
2022-11-24T00:11:35.768Z,17.93
2022-11-24T00:14:05.122Z,15.53
2022-11-24T00:16:38.150Z,15.23
2022-11-24T00:19:09.805Z,13.60
2022-11-24T00:21:38.760Z,20.23
2022-11-24T00:24:07.042Z,20.33
2022-11-24T00:26:37.377Z,21.83
2022-11-24T00:29:07.775Z,21.33
2022-11-24T00:31:40.896Z,23.73
2022-11-24T00:34:12.751Z,25.73
2022-11-24T00:36:41.899Z,25.93
2022-11-24T00:39:14.354Z,20.10
2022-11-24T00:41:43.350Z,19.40
2022-11-24T00:44:10.927Z,20.17
2022-11-24T00:46:38.762Z,24.03
2022-11-24T00:49:06.471Z,25.30
2022-11-24T00:51:34.607Z,22.93
2022-11-24T00:54:02.930Z,22.77
2022-11-24T00:56:31.126Z,21.87
2022-11-24T00:58:58.803Z,20.30
2022-11-24T01:01:31.123Z,23.10
2022-11-24T01:04:03.405Z,24.50
2022-11-24T01:06:32.596Z,22.13
2022-11-24T01:09:00.729Z,22.80
2022-11-24T01:11:52.208Z,20.57
2022-11-24T01:14:20.961Z,17.77
2022-11-24T01:16:48.561Z,20.13
2022-11-24T01:19:16.294Z,19.83
2022-11-24T01:21:43.943Z,25.63
2022-11-24T01:24:12.287Z,21.53
2022-11-24T01:26:39.847Z,20.23
2022-11-24T01:29:07.421Z,23.00
2022-11-24T01:31:36.975Z,22.37
2022-11-24T01:34:04.602Z,18.60
2022-11-24T01:36:32.119Z,25.00
2022-11-24T01:38:59.781Z,28.47
2022-11-24T01:41:28.012Z,27.13
2022-11-24T01:43:57.060Z,22.73
2022-11-24T01:46:47.029Z,20.60
2022-11-24T01:49:22.682Z,23.80
2022-11-24T01:52:27.549Z,23.77
2022-11-24T01:55:04.136Z,23.00
2022-11-24T01:58:01.053Z,25.17
2022-11-24T02:00:28.654Z,18.50
2022-11-24T02:02:56.435Z,21.03
2022-11-24T02:06:11.985Z,20.87
2022-11-24T02:08:49.249Z,22.17
2022-11-24T02:11:16.872Z,21.30
2022-11-24T02:13:46.475Z,19.70
2022-11-24T02:16:14.007Z,31.03
2022-11-24T02:18:43.330Z,26.33
2022-11-24T02:21:13.806Z,22.03
2022-11-24T02:24:32.391Z,19.87
2022-11-24T02:27:00.246Z,21.17
2022-11-24T02:29:27.832Z,22.87
2022-11-24T02:32:06.482Z,20.00
2022-11-24T02:34:34.573Z,17.27
2022-11-24T02:37:02.465Z,19.47
2022-11-24T02:39:30.101Z,16.40
2022-11-24T02:42:06.559Z,17.93
2022-11-24T02:44:41.144Z,16.77
2022-11-24T02:47:13.783Z,17.63
2022-11-24T02:49:41.789Z,18.60
2022-11-24T02:52:09.576Z,16.70
2022-11-24T02:54:37.344Z,13.87
2022-11-24T02:57:05.130Z,11.73
2022-11-24T02:59:32.687Z,13.73
2022-11-24T03:02:00.286Z,9.53
2022-11-24T03:04:27.804Z,11.20
2022-11-24T03:06:55.878Z,8.70
2022-11-24T03:09:23.438Z,11.83
2022-11-24T03:11:50.950Z,12.90
2022-11-24T03:14:18.507Z,11.73
2022-11-24T03:16:45.977Z,9.77
2022-11-24T03:19:13.663Z,8.93
2022-11-24T03:21:41.299Z,13.53
2022-11-24T03:24:09.123Z,9.23
2022-11-24T03:26:36.685Z,8.57
2022-11-24T03:29:04.326Z,7.17
2022-11-24T03:31:31.891Z,6.33
2022-11-24T03:33:59.550Z,7.63
2022-11-24T03:36:27.370Z,6.67
2022-11-24T03:38:54.976Z,5.37
2022-11-24T03:41:22.451Z,6.70
2022-11-24T03:43:49.918Z,5.10
2022-11-24T03:46:17.503Z,6.93
2022-11-24T03:48:45.008Z,7.80
2022-11-24T03:51:12.558Z,9.37
2022-11-24T03:53:40.390Z,11.03
2022-11-24T03:56:08.176Z,8.37
2022-11-24T03:58:36.147Z,7.20
2022-11-24T04:01:03.898Z,6.37
2022-11-24T04:03:31.741Z,6.83
2022-11-24T04:05:59.342Z,8.73
2022-11-24T04:08:26.864Z,11.17
2022-11-24T04:10:55.331Z,34.50
2022-11-24T04:13:26.252Z,52.30
2022-11-24T04:15:55.012Z,490.17
2022-11-24T04:18:22.799Z,67.30
2022-11-24T04:20:52.407Z,42.93
2022-11-24T04:23:21.030Z,86.23
2022-11-24T04:25:50.339Z,94.63
2022-11-24T04:28:18.865Z,146.33
2022-11-24T04:30:46.372Z,153.43
2022-11-24T04:33:14.451Z,187.50
2022-11-24T04:35:42.053Z,163.37
2022-11-24T04:38:09.626Z,155.33
2022-11-24T04:40:38.350Z,238.60
2022-11-24T04:43:05.997Z,122.30
2022-11-24T04:45:33.432Z,162.77
2022-11-24T04:48:00.928Z,95.23
2022-11-24T04:50:28.413Z,149.77
2022-11-24T04:52:56.096Z,122.00
2022-11-24T04:55:23.722Z,103.23
2022-11-24T04:57:51.243Z,78.40
2022-11-24T05:00:19.638Z,75.87
2022-11-24T05:02:47.205Z,134.73
2022-11-24T05:05:14.942Z,117.00
2022-11-24T05:07:42.470Z,252.90
2022-11-24T05:10:28.445Z,321.87
2022-11-24T05:12:59.335Z,152.53
2022-11-24T05:15:27.144Z,164.00
2022-11-24T05:17:55.225Z,144.93
2022-11-24T05:20:22.841Z,113.63
2022-11-24T05:22:50.556Z,170.10
2022-11-24T05:25:18.438Z,141.77
2022-11-24T05:27:46.044Z,188.40
2022-11-24T05:30:14.095Z,153.00
2022-11-24T05:32:41.599Z,174.57
2022-11-24T05:35:09.887Z,68.60
2022-11-24T05:37:37.999Z,194.07
2022-11-24T05:40:07.197Z,146.30
2022-11-24T05:42:46.234Z,199.17
2022-11-24T05:45:21.216Z,164.63
2022-11-24T05:47:51.419Z,126.23
2022-11-24T05:50:22.167Z,187.73
2022-11-24T05:52:50.749Z,139.37
2022-11-24T05:55:19.704Z,123.67
2022-11-24T05:57:47.343Z,155.10
2022-11-24T06:00:18.044Z,72.83
2022-11-24T06:02:45.713Z,152.70
2022-11-24T06:05:13.292Z,148.50
2022-11-24T06:07:41.466Z,87.83
2022-11-24T06:10:09.472Z,171.43
2022-11-24T06:12:37.073Z,166.67
2022-11-24T06:15:05.174Z,87.70
2022-11-24T06:17:32.673Z,141.70
2022-11-24T06:20:00.199Z,150.93
2022-11-24T06:22:27.931Z,79.97
2022-11-24T06:24:55.375Z,109.63
2022-11-24T06:27:23.193Z,190.47
2022-11-24T06:29:50.982Z,68.07
2022-11-24T06:32:18.776Z,140.10
2022-11-24T06:34:46.423Z,89.30
2022-11-24T06:37:13.914Z,164.03
2022-11-24T06:39:41.389Z,210.20
2022-11-24T06:42:08.876Z,136.30
2022-11-24T06:44:36.624Z,144.43
2022-11-24T06:47:04.262Z,139.07
2022-11-24T06:49:31.708Z,237.47
2022-11-24T06:51:59.180Z,89.00
2022-11-24T06:54:26.708Z,166.77
2022-11-24T06:56:59.030Z,106.17
2022-11-24T06:59:27.740Z,92.20
2022-11-24T07:01:55.432Z,96.17
2022-11-24T07:04:22.984Z,105.97
2022-11-24T07:06:50.479Z,86.20
2022-11-24T07:09:17.956Z,77.17
2022-11-24T07:11:45.437Z,78.77
2022-11-24T07:14:12.967Z,69.80
2022-11-24T07:16:40.961Z,35.77
2022-11-24T07:19:11.120Z,24.03
2022-11-24T07:21:38.665Z,29.63
2022-11-24T07:24:06.665Z,19.63
2022-11-24T07:26:37.491Z,29.43
2022-11-24T07:29:06.154Z,19.33
2022-11-24T07:31:33.734Z,19.47
2022-11-24T07:34:01.272Z,14.83
2022-11-24T07:36:28.888Z,17.33
2022-11-24T07:38:56.347Z,17.17
2022-11-24T07:41:23.911Z,15.77
2022-11-24T07:43:52.009Z,20.43
2022-11-24T07:46:21.011Z,19.60
2022-11-24T07:48:49.343Z,20.63
2022-11-24T07:51:17.309Z,21.27
2022-11-24T07:53:45.728Z,26.03
2022-11-24T07:56:13.451Z,25.07
2022-11-24T07:58:40.945Z,20.17
2022-11-24T08:01:17.677Z,21.27
2022-11-24T08:03:46.516Z,18.83
2022-11-24T08:06:25.077Z,23.97
2022-11-24T08:08:57.926Z,17.90
2022-11-24T08:11:26.217Z,18.53
2022-11-24T08:13:54.059Z,21.70
2022-11-24T08:16:21.829Z,24.30
2022-11-24T08:18:55.187Z,18.07
2022-11-24T08:21:23.691Z,19.30
2022-11-24T08:23:56.115Z,22.57
2022-11-24T08:26:25.246Z,19.87
2022-11-24T08:28:58.696Z,13.83
2022-11-24T08:31:33.349Z,13.77
2022-11-24T08:34:03.162Z,12.80
2022-11-24T08:36:31.168Z,18.73
2022-11-24T08:39:01.662Z,13.37
2022-11-24T08:41:30.552Z,12.20
2022-11-24T08:43:58.201Z,11.97
2022-11-24T08:46:25.952Z,10.27
2022-11-24T08:48:56.386Z,10.30
2022-11-24T08:51:27.000Z,9.80
2022-11-24T08:54:00.173Z,14.10
2022-11-24T08:56:29.925Z,8.37
2022-11-24T08:59:01.015Z,8.90
2022-11-24T09:01:29.613Z,10.47
2022-11-24T09:03:57.573Z,10.93
2022-11-24T09:06:30.254Z,8.60
2022-11-24T09:09:01.472Z,8.23
2022-11-24T09:11:30.809Z,6.67
2022-11-24T09:13:58.308Z,6.07
2022-11-24T09:16:29.067Z,8.27
2022-11-24T09:19:01.256Z,9.87
2022-11-24T09:21:30.779Z,8.90
2022-11-24T09:23:58.664Z,7.17
2022-11-24T09:26:29.857Z,9.00
2022-11-24T09:29:02.398Z,9.30
2022-11-24T09:31:36.087Z,8.60
2022-11-24T09:34:07.604Z,7.27
2022-11-24T09:36:35.922Z,8.47
2022-11-24T09:39:04.234Z,10.63
2022-11-24T09:41:31.644Z,7.17
2022-11-24T09:44:29.301Z,10.87
2022-11-24T09:47:32.845Z,9.70
2022-11-24T09:50:06.874Z,7.57
2022-11-24T09:53:04.114Z,6.87
2022-11-24T09:55:49.938Z,9.23
2022-11-24T09:58:41.503Z,6.50
2022-11-24T10:01:17.979Z,8.73
2022-11-24T10:03:50.960Z,9.40
2022-11-24T10:06:25.105Z,11.47
2022-11-24T10:09:23.768Z,12.03
2022-11-24T10:12:23.495Z,14.90
2022-11-24T10:15:02.581Z,13.70
2022-11-24T10:17:45.607Z,11.17
2022-11-24T10:20:39.817Z,7.57
2022-11-24T10:23:40.923Z,7.63
2022-11-24T10:26:39.848Z,7.03
2022-11-24T10:29:51.377Z,12.10
2022-11-24T10:32:37.170Z,8.77
2022-11-24T10:35:35.248Z,7.23
2022-11-24T10:38:22.116Z,5.27
2022-11-24T10:41:08.965Z,4.37
2022-11-24T10:43:36.457Z,5.10
2022-11-24T10:46:15.872Z,6.20
2022-11-24T10:48:53.518Z,4.83
2022-11-24T10:51:45.151Z,6.03
2022-11-24T10:54:20.295Z,6.03
2022-11-24T10:56:51.916Z,7.20
2022-11-24T10:59:37.613Z,4.80
2022-11-24T11:02:33.232Z,2.90
2022-11-24T11:05:35.398Z,6.23
2022-11-24T11:08:16.832Z,3.27
2022-11-24T11:10:46.713Z,7.50
2022-11-24T11:13:26.634Z,11.37
2022-11-24T11:15:55.877Z,7.00
2022-11-24T11:18:29.227Z,7.37
2022-11-24T11:21:01.920Z,23.80
2022-11-24T11:23:36.005Z,11.17
2022-11-24T11:26:25.530Z,8.67
2022-11-24T11:34:55.895Z,9.23
2022-11-24T11:37:31.460Z,8.77
2022-11-24T11:39:59.577Z,3.37
2022-11-24T11:43:01.368Z,7.67
2022-11-24T11:45:43.628Z,14.37
2022-11-24T11:48:42.413Z,4.13
2022-11-24T11:52:17.307Z,7.80
2022-11-24T11:55:13.759Z,4.00
2022-11-24T11:58:08.598Z,7.27
2022-11-24T12:00:42.600Z,5.83
2022-11-24T12:03:17.141Z,6.07
2022-11-24T12:06:22.739Z,6.63
2022-11-24T12:09:21.538Z,9.80
2022-11-24T12:12:23.962Z,4.33
2022-11-24T12:15:32.880Z,5.67
2022-11-24T12:18:54.990Z,2.73
2022-11-24T12:21:26.846Z,3.10
2022-11-24T12:24:37.215Z,5.70
2022-11-24T12:27:26.472Z,9.87
2022-11-24T12:30:05.423Z,5.57
2022-11-24T12:32:53.499Z,8.07
2022-11-24T12:35:28.739Z,4.63
2022-11-24T12:38:28.621Z,5.67
2022-11-24T12:41:42.015Z,6.47
2022-11-24T12:44:39.366Z,4.97
2022-11-24T12:47:23.869Z,7.30
2022-11-24T12:50:20.247Z,4.10
2022-11-24T12:53:10.543Z,6.00
2022-11-24T12:55:39.530Z,6.00
2022-11-24T12:58:27.839Z,6.17
2022-11-24T13:01:23.029Z,6.73
2022-11-24T13:04:11.912Z,7.17
2022-11-24T13:07:31.504Z,9.50
2022-11-24T13:13:19.114Z,5.37
2022-11-24T13:19:20.447Z,8.77
2022-11-24T13:21:59.845Z,5.47
2022-11-24T13:24:32.084Z,11.73
2022-11-24T13:27:15.253Z,5.80
2022-11-24T13:29:45.447Z,7.63
2022-11-24T13:32:13.077Z,10.93
2022-11-24T13:34:40.539Z,9.37
2022-11-24T13:37:31.564Z,5.60
2022-11-24T13:40:12.433Z,9.87
2022-11-24T13:42:57.965Z,4.30
2022-11-24T13:45:41.031Z,6.80
2022-11-24T13:48:21.709Z,6.17
2022-11-24T13:50:56.209Z,6.27
2022-11-24T13:53:48.320Z,11.03
2022-11-24T13:56:15.730Z,13.87
2022-11-24T13:58:59.020Z,5.77
2022-11-24T14:01:33.357Z,7.37
2022-11-24T14:04:43.200Z,6.33
2022-11-24T14:07:15.274Z,7.03
2022-11-24T14:09:45.580Z,4.60
2022-11-24T14:12:25.408Z,7.10
2022-11-24T14:14:57.403Z,6.93
2022-11-24T14:17:28.845Z,5.77
2022-11-24T14:19:58.437Z,5.50
2022-11-24T14:22:37.184Z,7.03
2022-11-24T14:25:05.928Z,3.37
2022-11-24T14:27:37.780Z,5.03
2022-11-24T14:30:13.455Z,6.37
2022-11-24T14:32:45.609Z,7.73
2022-11-24T14:35:23.441Z,9.17
2022-11-24T14:37:51.337Z,7.10
2022-11-24T14:40:48.418Z,4.83
2022-11-24T14:43:34.671Z,7.43
2022-11-24T14:46:09.407Z,10.53
2022-11-24T14:48:57.947Z,11.57
2022-11-24T14:51:30.750Z,10.03
2022-11-24T14:54:02.516Z,7.83
2022-11-24T14:56:36.453Z,14.77
2022-11-24T14:59:20.492Z,6.77
2022-11-24T15:01:48.093Z,7.27
2022-11-24T15:07:26.702Z,11.03
2022-11-24T15:10:00.452Z,7.90
2022-11-24T15:12:41.828Z,10.37
2022-11-24T15:15:15.187Z,6.90
2022-11-24T15:18:00.110Z,9.43
2022-11-24T15:20:42.284Z,5.93
2022-11-24T15:23:33.875Z,5.73
2022-11-24T15:26:04.831Z,4.27
2022-11-24T15:28:32.735Z,5.03
2022-11-24T15:31:03.643Z,11.43
2022-11-24T15:33:33.129Z,6.37
2022-11-24T15:36:00.871Z,6.47
2022-11-24T15:38:30.118Z,10.40
2022-11-24T15:41:01.208Z,11.07
2022-11-24T15:43:37.866Z,14.20
2022-11-24T15:46:06.849Z,6.63
2022-11-24T15:48:35.801Z,3.73
2022-11-24T15:51:09.333Z,10.77
2022-11-24T15:54:01.044Z,11.20
2022-11-24T15:56:34.240Z,58.93
2022-11-24T15:59:03.258Z,8.03
2022-11-24T16:01:34.719Z,7.63
2022-11-24T16:04:03.899Z,7.27
2022-11-24T16:06:33.738Z,4.23
2022-11-24T16:09:01.581Z,13.10
2022-11-24T16:11:31.426Z,9.20
2022-11-24T16:13:59.250Z,11.50
2022-11-24T16:16:30.655Z,26.03
2022-11-24T16:18:58.480Z,10.33
2022-11-24T16:21:27.870Z,11.20
2022-11-24T16:23:58.451Z,8.13
2022-11-24T16:26:26.102Z,10.47
2022-11-24T16:28:58.757Z,8.33
2022-11-24T16:31:29.536Z,11.60
2022-11-24T16:34:03.786Z,11.60
2022-11-24T16:36:33.931Z,8.93
2022-11-24T16:39:03.584Z,14.80
2022-11-24T16:41:39.545Z,8.10
2022-11-24T16:44:08.987Z,11.63
2022-11-24T16:46:45.346Z,10.80
2022-11-24T16:49:20.169Z,11.10
2022-11-24T16:51:54.027Z,10.33
2022-11-24T16:54:23.996Z,13.03
2022-11-24T16:56:55.719Z,18.03
2022-11-24T16:59:25.780Z,11.30
2022-11-24T17:01:56.738Z,11.40
2022-11-24T17:04:27.160Z,10.00
2022-11-24T17:06:56.032Z,9.50
2022-11-24T17:09:47.436Z,7.50
2022-11-24T17:12:14.988Z,12.23
2022-11-24T17:14:44.358Z,6.77
2022-11-24T17:17:20.021Z,6.17
2022-11-24T17:19:48.506Z,4.67
2022-11-24T17:22:16.065Z,7.47
2022-11-24T17:24:43.665Z,6.47
2022-11-24T17:27:11.201Z,5.90
2022-11-24T17:29:39.113Z,4.80
2022-11-24T17:32:08.270Z,4.73
2022-11-24T17:34:38.016Z,5.37
2022-11-24T17:37:06.131Z,9.40
2022-11-24T17:39:34.466Z,4.07
2022-11-24T17:42:02.459Z,7.83
2022-11-24T17:44:32.340Z,10.60
2022-11-24T17:47:01.175Z,8.97
2022-11-24T17:49:28.755Z,4.73
2022-11-24T17:51:59.354Z,4.60
2022-11-24T17:54:45.993Z,6.17
2022-11-24T17:57:14.659Z,5.13
2022-11-24T17:59:42.121Z,8.13
2022-11-24T18:02:12.410Z,4.23
2022-11-24T18:04:40.480Z,4.53
2022-11-24T18:09:53.296Z,2.90
2022-11-24T18:12:21.521Z,8.13
2022-11-24T18:14:50.554Z,3.40
2022-11-24T18:17:19.250Z,2.93
2022-11-24T18:19:48.926Z,4.40
2022-11-24T18:22:36.605Z,2.40
2022-11-24T18:25:08.222Z,5.60
2022-11-24T18:27:36.441Z,6.00
2022-11-24T18:30:25.377Z,3.10
2022-11-24T18:32:58.523Z,2.90
2022-11-24T18:35:29.094Z,6.90
2022-11-24T18:37:56.778Z,4.37
2022-11-24T18:40:24.534Z,8.33
2022-11-24T18:43:00.903Z,3.33
2022-11-24T18:45:31.740Z,5.20
2022-11-24T18:48:08.399Z,7.03
2022-11-24T18:50:36.899Z,3.80
2022-11-24T18:53:06.332Z,4.23
2022-11-24T18:55:34.691Z,3.37
2022-11-24T18:58:04.126Z,3.97
2022-11-24T19:00:36.214Z,3.97
2022-11-24T19:03:04.523Z,3.60
2022-11-24T19:05:32.254Z,4.13
2022-11-24T19:07:59.929Z,4.13
2022-11-24T19:10:28.041Z,3.73
2022-11-24T19:12:57.055Z,7.63
2022-11-24T19:15:25.326Z,5.67
2022-11-24T19:17:54.186Z,5.83
2022-11-24T19:20:23.355Z,3.90
2022-11-24T19:22:52.519Z,3.20
2022-11-24T19:25:30.776Z,3.13
2022-11-24T19:28:00.889Z,3.30
2022-11-24T19:30:29.462Z,3.60
2022-11-24T19:32:58.156Z,4.53
2022-11-24T19:35:25.729Z,4.10
2022-11-24T19:37:53.957Z,3.30
2022-11-24T19:40:21.532Z,3.60
2022-11-24T19:42:49.306Z,4.10
2022-11-24T19:45:18.494Z,3.17
2022-11-24T19:47:48.618Z,3.10
2022-11-24T19:50:17.069Z,3.50
2022-11-24T19:52:48.361Z,6.23
2022-11-24T19:55:16.664Z,4.80
2022-11-24T19:57:44.316Z,4.97
2022-11-24T20:00:13.154Z,5.03
2022-11-24T20:02:40.896Z,2.80
2022-11-24T20:05:09.005Z,4.33
2022-11-24T20:07:36.715Z,3.07
2022-11-24T20:10:07.975Z,3.20
2022-11-24T20:12:35.813Z,3.17
2022-11-24T20:15:03.586Z,3.20
2022-11-24T20:17:32.905Z,3.43
2022-11-24T20:20:01.110Z,2.97
2022-11-24T20:22:32.167Z,3.07
2022-11-24T20:25:03.402Z,3.13
2022-11-24T20:27:32.010Z,4.53
2022-11-24T20:29:59.995Z,3.27
2022-11-24T20:32:27.688Z,3.43
2022-11-24T20:34:55.762Z,3.00
2022-11-24T20:37:24.121Z,5.30
2022-11-24T20:39:51.716Z,3.73
2022-11-24T20:42:19.316Z,2.80
2022-11-24T20:44:46.843Z,4.07
2022-11-24T20:47:16.451Z,3.40
2022-11-24T20:49:44.054Z,3.67
2022-11-24T20:52:11.761Z,3.73
2022-11-24T20:54:39.299Z,3.90
2022-11-24T20:57:07.523Z,4.00
2022-11-24T20:59:35.157Z,3.90
2022-11-24T21:02:02.731Z,3.30
2022-11-24T21:04:30.340Z,3.40
2022-11-24T21:06:58.094Z,3.70
2022-11-24T21:09:27.273Z,4.20
2022-11-24T21:11:54.943Z,3.33
2022-11-24T21:14:22.434Z,2.37
2022-11-24T21:16:51.377Z,3.67
2022-11-24T21:19:19.259Z,3.33
2022-11-24T21:21:48.830Z,11.47
2022-11-24T21:24:21.659Z,3.30
2022-11-24T21:26:52.258Z,2.90
2022-11-24T21:29:23.778Z,3.10
2022-11-24T21:31:51.797Z,3.73
2022-11-24T21:34:19.593Z,3.17
2022-11-24T21:36:48.076Z,3.33
2022-11-24T21:39:16.696Z,3.10
2022-11-24T21:41:44.515Z,3.40
2022-11-24T21:44:14.138Z,5.40
2022-11-24T21:46:48.111Z,3.50
2022-11-24T21:49:18.715Z,3.30
2022-11-24T21:51:46.243Z,8.03
2022-11-24T21:54:13.765Z,4.33
2022-11-24T21:56:41.817Z,4.00
2022-11-24T21:59:09.516Z,5.87
2022-11-24T22:01:37.034Z,4.03
2022-11-24T22:04:04.825Z,3.37
2022-11-24T22:06:33.319Z,4.70
2022-11-24T22:09:01.042Z,4.40
2022-11-24T22:11:28.480Z,5.43
2022-11-24T22:13:55.939Z,6.33
2022-11-24T22:16:26.186Z,4.73
2022-11-24T22:18:53.978Z,3.23
2022-11-24T22:21:24.467Z,3.57
2022-11-24T22:23:53.896Z,3.20
2022-11-24T22:26:23.810Z,4.00
2022-11-24T22:28:53.000Z,3.33
2022-11-24T22:31:29.568Z,3.30
2022-11-24T22:33:59.956Z,3.60
2022-11-24T22:36:31.319Z,2.57
2022-11-24T22:39:05.200Z,3.67
2022-11-24T22:41:35.205Z,3.60
2022-11-24T22:44:03.338Z,2.80
2022-11-24T22:46:32.822Z,2.87
2022-11-24T22:49:02.236Z,2.60
2022-11-24T22:51:35.000Z,2.60
2022-11-24T22:54:05.615Z,2.70
2022-11-24T22:56:34.429Z,2.70
2022-11-24T22:59:03.289Z,3.07
2022-11-24T23:01:33.711Z,2.77
2022-11-24T23:04:02.460Z,2.90
2022-11-24T23:06:32.706Z,3.97
2022-11-24T23:09:02.034Z,2.77
2022-11-24T23:11:37.401Z,2.80
2022-11-24T23:14:14.017Z,2.50
2022-11-24T23:16:42.302Z,2.53
2022-11-24T23:19:10.227Z,3.23
2022-11-24T23:21:38.816Z,3.57
2022-11-24T23:24:07.827Z,3.23
2022-11-24T23:26:38.868Z,2.83
2022-11-24T23:29:07.692Z,3.03
2022-11-24T23:31:35.596Z,2.70
2022-11-24T23:34:04.756Z,4.20
2022-11-24T23:36:33.513Z,3.20
2022-11-24T23:39:18.813Z,3.20
2022-11-24T23:41:46.312Z,4.33
2022-11-24T23:44:13.741Z,3.40
2022-11-24T23:46:41.244Z,5.47
2022-11-24T23:49:08.748Z,4.33
2022-11-24T23:51:36.249Z,3.10
2022-11-24T23:54:09.651Z,2.97
2022-11-24T23:56:37.981Z,2.90
2022-11-24T23:59:06.155Z,3.00
